sensor_id;sensor_type;location;lat;lon;timestamp;P1;durP1;ratioP1;P2;durP2;ratioP2
68074;SDS011;54864;52.002;5.468;2022-08-05T00:01:20;8.15;;;2.45;;
68074;SDS011;54864;52.002;5.468;2022-08-05T00:02:42;10.97;;;3.67;;
68074;SDS011;54864;52.002;5.468;2022-08-05T00:04:06;6.65;;;2.90;;
68074;SDS011;54864;52.002;5.468;2022-08-05T00:05:28;8.32;;;2.83;;
68074;SDS011;54864;52.002;5.468;2022-08-05T00:06:50;7.53;;;3.22;;
68074;SDS011;54864;52.002;5.468;2022-08-05T00:08:12;9.57;;;2.87;;
68074;SDS011;54864;52.002;5.468;2022-08-05T00:09:35;11.57;;;3.38;;
68074;SDS011;54864;52.002;5.468;2022-08-05T00:10:56;10.45;;;3.20;;
68074;SDS011;54864;52.002;5.468;2022-08-05T00:12:18;7.97;;;2.97;;
68074;SDS011;54864;52.002;5.468;2022-08-05T00:13:41;8.10;;;2.85;;
68074;SDS011;54864;52.002;5.468;2022-08-05T00:15:04;5.57;;;2.70;;
68074;SDS011;54864;52.002;5.468;2022-08-05T00:16:28;8.18;;;3.00;;
68074;SDS011;54864;52.002;5.468;2022-08-05T00:17:50;8.15;;;3.15;;
68074;SDS011;54864;52.002;5.468;2022-08-05T00:19:12;9.20;;;2.90;;
68074;SDS011;54864;52.002;5.468;2022-08-05T00:20:35;8.95;;;3.58;;
68074;SDS011;54864;52.002;5.468;2022-08-05T00:21:56;10.10;;;3.10;;
68074;SDS011;54864;52.002;5.468;2022-08-05T00:23:18;9.57;;;3.08;;
68074;SDS011;54864;52.002;5.468;2022-08-05T00:24:39;10.55;;;3.35;;
68074;SDS011;54864;52.002;5.468;2022-08-05T00:26:01;8.52;;;3.05;;
68074;SDS011;54864;52.002;5.468;2022-08-05T00:27:22;9.38;;;3.15;;
68074;SDS011;54864;52.002;5.468;2022-08-05T00:28:44;11.75;;;3.75;;
68074;SDS011;54864;52.002;5.468;2022-08-05T00:30:06;10.70;;;3.45;;
68074;SDS011;54864;52.002;5.468;2022-08-05T00:31:30;9.43;;;3.33;;
68074;SDS011;54864;52.002;5.468;2022-08-05T00:32:51;9.20;;;2.83;;
68074;SDS011;54864;52.002;5.468;2022-08-05T00:34:14;8.63;;;3.17;;
68074;SDS011;54864;52.002;5.468;2022-08-05T00:35:37;7.47;;;3.10;;
68074;SDS011;54864;52.002;5.468;2022-08-05T00:36:58;8.35;;;2.80;;
68074;SDS011;54864;52.002;5.468;2022-08-05T00:38:20;9.07;;;3.17;;
68074;SDS011;54864;52.002;5.468;2022-08-05T00:39:41;11.13;;;2.80;;
68074;SDS011;54864;52.002;5.468;2022-08-05T00:41:03;10.32;;;3.55;;
68074;SDS011;54864;52.002;5.468;2022-08-05T00:42:30;10.85;;;3.60;;
68074;SDS011;54864;52.002;5.468;2022-08-05T00:43:53;10.50;;;3.30;;
68074;SDS011;54864;52.002;5.468;2022-08-05T00:45:16;13.02;;;3.72;;
68074;SDS011;54864;52.002;5.468;2022-08-05T00:46:38;9.88;;;3.30;;
68074;SDS011;54864;52.002;5.468;2022-08-05T00:48:00;8.65;;;2.85;;
68074;SDS011;54864;52.002;5.468;2022-08-05T00:49:23;10.77;;;2.95;;
68074;SDS011;54864;52.002;5.468;2022-08-05T00:50:45;9.23;;;2.75;;
68074;SDS011;54864;52.002;5.468;2022-08-05T00:52:10;10.43;;;2.80;;
68074;SDS011;54864;52.002;5.468;2022-08-05T00:53:31;11.52;;;3.20;;
68074;SDS011;54864;52.002;5.468;2022-08-05T00:54:53;7.22;;;3.42;;
68074;SDS011;54864;52.002;5.468;2022-08-05T00:56:14;12.25;;;3.38;;
68074;SDS011;54864;52.002;5.468;2022-08-05T00:57:37;10.02;;;3.47;;
68074;SDS011;54864;52.002;5.468;2022-08-05T00:58:58;12.60;;;3.42;;
68074;SDS011;54864;52.002;5.468;2022-08-05T01:00:21;9.05;;;3.15;;
68074;SDS011;54864;52.002;5.468;2022-08-05T01:01:42;9.98;;;3.47;;
68074;SDS011;54864;52.002;5.468;2022-08-05T01:03:04;10.00;;;3.30;;
68074;SDS011;54864;52.002;5.468;2022-08-05T01:04:27;12.30;;;3.22;;
68074;SDS011;54864;52.002;5.468;2022-08-05T01:05:49;8.82;;;3.10;;
68074;SDS011;54864;52.002;5.468;2022-08-05T01:07:11;9.65;;;3.22;;
68074;SDS011;54864;52.002;5.468;2022-08-05T01:08:34;10.43;;;3.28;;
68074;SDS011;54864;52.002;5.468;2022-08-05T01:09:56;9.02;;;3.40;;
68074;SDS011;54864;52.002;5.468;2022-08-05T01:11:20;9.20;;;3.08;;
68074;SDS011;54864;52.002;5.468;2022-08-05T01:12:46;8.18;;;3.33;;
68074;SDS011;54864;52.002;5.468;2022-08-05T01:14:17;7.47;;;2.67;;
68074;SDS011;54864;52.002;5.468;2022-08-05T01:15:46;7.28;;;3.15;;
68074;SDS011;54864;52.002;5.468;2022-08-05T01:17:16;10.27;;;3.60;;
68074;SDS011;54864;52.002;5.468;2022-08-05T01:18:46;10.82;;;3.78;;
68074;SDS011;54864;52.002;5.468;2022-08-05T01:20:18;8.88;;;3.13;;
68074;SDS011;54864;52.002;5.468;2022-08-05T01:23:59;10.38;;;3.13;;
68074;SDS011;54864;52.002;5.468;2022-08-05T01:25:36;7.43;;;3.20;;
68074;SDS011;54864;52.002;5.468;2022-08-05T01:27:12;8.80;;;3.03;;
68074;SDS011;54864;52.002;5.468;2022-08-05T01:28:51;8.90;;;3.37;;
68074;SDS011;54864;52.002;5.468;2022-08-05T01:30:17;11.23;;;3.28;;
68074;SDS011;54864;52.002;5.468;2022-08-05T01:31:41;8.20;;;3.03;;
68074;SDS011;54864;52.002;5.468;2022-08-05T01:33:08;15.95;;;3.53;;
68074;SDS011;54864;52.002;5.468;2022-08-05T01:34:32;9.90;;;3.47;;
68074;SDS011;54864;52.002;5.468;2022-08-05T01:35:58;8.38;;;3.17;;
68074;SDS011;54864;52.002;5.468;2022-08-05T01:37:28;7.35;;;3.08;;
68074;SDS011;54864;52.002;5.468;2022-08-05T01:38:58;9.55;;;2.83;;
68074;SDS011;54864;52.002;5.468;2022-08-05T01:40:21;11.18;;;3.33;;
68074;SDS011;54864;52.002;5.468;2022-08-05T01:41:48;9.27;;;3.00;;
68074;SDS011;54864;52.002;5.468;2022-08-05T01:43:12;9.35;;;2.75;;
68074;SDS011;54864;52.002;5.468;2022-08-05T01:44:36;8.87;;;3.10;;
68074;SDS011;54864;52.002;5.468;2022-08-05T01:46:00;10.40;;;3.22;;
68074;SDS011;54864;52.002;5.468;2022-08-05T01:47:24;9.70;;;3.30;;
68074;SDS011;54864;52.002;5.468;2022-08-05T01:48:49;9.52;;;3.08;;
68074;SDS011;54864;52.002;5.468;2022-08-05T01:50:14;11.57;;;2.92;;
68074;SDS011;54864;52.002;5.468;2022-08-05T01:51:53;12.02;;;2.65;;
68074;SDS011;54864;52.002;5.468;2022-08-05T01:53:19;10.75;;;3.35;;
68074;SDS011;54864;52.002;5.468;2022-08-05T01:54:45;11.93;;;2.97;;
68074;SDS011;54864;52.002;5.468;2022-08-05T01:56:12;9.25;;;3.17;;
68074;SDS011;54864;52.002;5.468;2022-08-05T01:57:37;8.65;;;3.10;;
68074;SDS011;54864;52.002;5.468;2022-08-05T01:59:03;6.43;;;2.90;;
68074;SDS011;54864;52.002;5.468;2022-08-05T02:00:30;10.43;;;2.78;;
68074;SDS011;54864;52.002;5.468;2022-08-05T02:01:55;7.72;;;2.63;;
68074;SDS011;54864;52.002;5.468;2022-08-05T02:03:20;8.30;;;3.03;;
68074;SDS011;54864;52.002;5.468;2022-08-05T02:04:46;7.68;;;2.83;;
68074;SDS011;54864;52.002;5.468;2022-08-05T02:06:09;10.35;;;2.72;;
68074;SDS011;54864;52.002;5.468;2022-08-05T02:07:33;9.70;;;3.13;;
68074;SDS011;54864;52.002;5.468;2022-08-05T02:08:55;9.77;;;3.35;;
68074;SDS011;54864;52.002;5.468;2022-08-05T02:10:18;9.00;;;2.83;;
68074;SDS011;54864;52.002;5.468;2022-08-05T02:11:41;9.48;;;2.70;;
68074;SDS011;54864;52.002;5.468;2022-08-05T02:13:11;7.80;;;2.55;;
68074;SDS011;54864;52.002;5.468;2022-08-05T02:14:38;11.45;;;3.15;;
68074;SDS011;54864;52.002;5.468;2022-08-05T02:16:09;8.05;;;3.35;;
68074;SDS011;54864;52.002;5.468;2022-08-05T02:17:40;7.35;;;2.70;;
68074;SDS011;54864;52.002;5.468;2022-08-05T02:19:13;7.60;;;3.45;;
68074;SDS011;54864;52.002;5.468;2022-08-05T02:20:45;10.48;;;3.30;;
68074;SDS011;54864;52.002;5.468;2022-08-05T02:22:14;9.33;;;3.10;;
68074;SDS011;54864;52.002;5.468;2022-08-05T02:23:40;6.65;;;2.90;;
68074;SDS011;54864;52.002;5.468;2022-08-05T02:25:05;8.05;;;3.05;;
68074;SDS011;54864;52.002;5.468;2022-08-05T02:26:35;8.02;;;3.05;;
68074;SDS011;54864;52.002;5.468;2022-08-05T02:27:59;11.00;;;3.40;;
68074;SDS011;54864;52.002;5.468;2022-08-05T02:29:24;10.43;;;3.07;;
68074;SDS011;54864;52.002;5.468;2022-08-05T02:30:51;11.20;;;3.30;;
68074;SDS011;54864;52.002;5.468;2022-08-05T02:32:19;8.70;;;3.20;;
68074;SDS011;54864;52.002;5.468;2022-08-05T02:33:46;11.05;;;3.08;;
68074;SDS011;54864;52.002;5.468;2022-08-05T02:35:12;9.23;;;3.28;;
68074;SDS011;54864;52.002;5.468;2022-08-05T02:36:40;6.25;;;2.80;;
68074;SDS011;54864;52.002;5.468;2022-08-05T02:38:06;8.23;;;2.72;;
68074;SDS011;54864;52.002;5.468;2022-08-05T02:39:30;9.93;;;3.05;;
68074;SDS011;54864;52.002;5.468;2022-08-05T02:40:58;9.77;;;3.13;;
68074;SDS011;54864;52.002;5.468;2022-08-05T02:42:20;8.68;;;3.00;;
68074;SDS011;54864;52.002;5.468;2022-08-05T02:43:43;8.23;;;2.95;;
68074;SDS011;54864;52.002;5.468;2022-08-05T02:45:08;9.70;;;3.40;;
68074;SDS011;54864;52.002;5.468;2022-08-05T02:46:31;10.10;;;2.90;;
68074;SDS011;54864;52.002;5.468;2022-08-05T02:47:55;10.52;;;2.80;;
68074;SDS011;54864;52.002;5.468;2022-08-05T02:49:18;7.93;;;2.80;;
68074;SDS011;54864;52.002;5.468;2022-08-05T02:50:40;7.60;;;2.85;;
68074;SDS011;54864;52.002;5.468;2022-08-05T02:52:06;6.10;;;2.42;;
68074;SDS011;54864;52.002;5.468;2022-08-05T02:53:31;10.27;;;2.80;;
68074;SDS011;54864;52.002;5.468;2022-08-05T02:54:54;13.10;;;3.13;;
68074;SDS011;54864;52.002;5.468;2022-08-05T02:56:17;7.70;;;2.60;;
68074;SDS011;54864;52.002;5.468;2022-08-05T02:57:39;6.68;;;2.95;;
68074;SDS011;54864;52.002;5.468;2022-08-05T02:59:02;9.88;;;3.13;;
68074;SDS011;54864;52.002;5.468;2022-08-05T03:00:24;8.13;;;2.55;;
68074;SDS011;54864;52.002;5.468;2022-08-05T03:01:47;9.15;;;2.88;;
68074;SDS011;54864;52.002;5.468;2022-08-05T03:03:13;8.85;;;2.97;;
68074;SDS011;54864;52.002;5.468;2022-08-05T03:04:37;6.03;;;2.53;;
68074;SDS011;54864;52.002;5.468;2022-08-05T03:06:00;7.45;;;2.63;;
68074;SDS011;54864;52.002;5.468;2022-08-05T03:07:23;7.30;;;3.23;;
68074;SDS011;54864;52.002;5.468;2022-08-05T03:08:47;8.52;;;3.10;;
68074;SDS011;54864;52.002;5.468;2022-08-05T03:10:13;9.43;;;2.90;;
68074;SDS011;54864;52.002;5.468;2022-08-05T03:11:36;8.47;;;3.23;;
68074;SDS011;54864;52.002;5.468;2022-08-05T03:13:11;10.48;;;2.50;;
68074;SDS011;54864;52.002;5.468;2022-08-05T03:14:34;6.28;;;2.45;;
68074;SDS011;54864;52.002;5.468;2022-08-05T03:15:55;9.35;;;3.08;;
68074;SDS011;54864;52.002;5.468;2022-08-05T03:17:17;8.95;;;3.20;;
68074;SDS011;54864;52.002;5.468;2022-08-05T03:18:40;7.97;;;2.88;;
68074;SDS011;54864;52.002;5.468;2022-08-05T03:20:03;9.27;;;2.90;;
68074;SDS011;54864;52.002;5.468;2022-08-05T03:21:26;8.77;;;3.65;;
68074;SDS011;54864;52.002;5.468;2022-08-05T03:22:48;7.20;;;3.10;;
68074;SDS011;54864;52.002;5.468;2022-08-05T03:24:09;9.30;;;2.67;;
68074;SDS011;54864;52.002;5.468;2022-08-05T03:25:32;9.85;;;3.15;;
68074;SDS011;54864;52.002;5.468;2022-08-05T03:26:55;8.25;;;3.13;;
68074;SDS011;54864;52.002;5.468;2022-08-05T03:28:17;11.65;;;3.20;;
68074;SDS011;54864;52.002;5.468;2022-08-05T03:29:39;10.00;;;2.85;;
68074;SDS011;54864;52.002;5.468;2022-08-05T03:31:01;7.65;;;2.88;;
68074;SDS011;54864;52.002;5.468;2022-08-05T03:32:24;7.30;;;2.92;;
68074;SDS011;54864;52.002;5.468;2022-08-05T03:33:48;9.55;;;2.72;;
68074;SDS011;54864;52.002;5.468;2022-08-05T03:35:10;11.25;;;3.28;;
68074;SDS011;54864;52.002;5.468;2022-08-05T03:36:34;7.38;;;2.90;;
68074;SDS011;54864;52.002;5.468;2022-08-05T03:37:56;7.85;;;3.35;;
68074;SDS011;54864;52.002;5.468;2022-08-05T03:39:18;9.57;;;3.20;;
68074;SDS011;54864;52.002;5.468;2022-08-05T03:40:40;5.05;;;2.85;;
68074;SDS011;54864;52.002;5.468;2022-08-05T03:42:02;8.27;;;2.97;;
68074;SDS011;54864;52.002;5.468;2022-08-05T03:43:25;9.80;;;3.92;;
68074;SDS011;54864;52.002;5.468;2022-08-05T03:44:47;10.40;;;3.00;;
68074;SDS011;54864;52.002;5.468;2022-08-05T03:46:08;8.55;;;3.10;;
68074;SDS011;54864;52.002;5.468;2022-08-05T03:47:30;8.60;;;3.20;;
68074;SDS011;54864;52.002;5.468;2022-08-05T03:48:53;8.30;;;3.08;;
68074;SDS011;54864;52.002;5.468;2022-08-05T03:50:15;6.63;;;3.45;;
68074;SDS011;54864;52.002;5.468;2022-08-05T03:51:37;5.50;;;2.70;;
68074;SDS011;54864;52.002;5.468;2022-08-05T03:53:06;6.70;;;2.72;;
68074;SDS011;54864;52.002;5.468;2022-08-05T03:54:34;8.23;;;3.22;;
68074;SDS011;54864;52.002;5.468;2022-08-05T03:56:06;7.40;;;3.33;;
68074;SDS011;54864;52.002;5.468;2022-08-05T03:57:34;6.73;;;2.70;;
68074;SDS011;54864;52.002;5.468;2022-08-05T03:59:00;8.40;;;2.95;;
68074;SDS011;54864;52.002;5.468;2022-08-05T04:00:24;14.77;;;3.03;;
68074;SDS011;54864;52.002;5.468;2022-08-05T04:01:50;5.97;;;2.75;;
68074;SDS011;54864;52.002;5.468;2022-08-05T04:03:15;8.73;;;2.65;;
68074;SDS011;54864;52.002;5.468;2022-08-05T04:04:40;9.15;;;3.35;;
68074;SDS011;54864;52.002;5.468;2022-08-05T04:06:03;7.60;;;2.83;;
68074;SDS011;54864;52.002;5.468;2022-08-05T04:07:26;10.73;;;2.90;;
68074;SDS011;54864;52.002;5.468;2022-08-05T04:08:48;11.87;;;3.17;;
68074;SDS011;54864;52.002;5.468;2022-08-05T04:10:10;9.80;;;3.83;;
68074;SDS011;54864;52.002;5.468;2022-08-05T04:11:32;10.50;;;3.33;;
68074;SDS011;54864;52.002;5.468;2022-08-05T04:12:55;6.78;;;3.13;;
68074;SDS011;54864;52.002;5.468;2022-08-05T04:14:16;7.25;;;2.65;;
68074;SDS011;54864;52.002;5.468;2022-08-05T04:15:39;6.23;;;2.97;;
68074;SDS011;54864;52.002;5.468;2022-08-05T04:17:01;10.35;;;2.88;;
68074;SDS011;54864;52.002;5.468;2022-08-05T04:18:23;9.45;;;3.00;;
68074;SDS011;54864;52.002;5.468;2022-08-05T04:19:47;12.93;;;4.25;;
68074;SDS011;54864;52.002;5.468;2022-08-05T04:21:09;7.85;;;3.20;;
68074;SDS011;54864;52.002;5.468;2022-08-05T04:22:32;7.57;;;3.00;;
68074;SDS011;54864;52.002;5.468;2022-08-05T04:23:54;8.85;;;3.95;;
68074;SDS011;54864;52.002;5.468;2022-08-05T04:25:18;7.28;;;3.60;;
68074;SDS011;54864;52.002;5.468;2022-08-05T04:26:40;12.63;;;4.18;;
68074;SDS011;54864;52.002;5.468;2022-08-05T04:28:03;12.60;;;3.95;;
68074;SDS011;54864;52.002;5.468;2022-08-05T04:29:25;11.10;;;4.15;;
68074;SDS011;54864;52.002;5.468;2022-08-05T04:30:47;14.98;;;3.90;;
68074;SDS011;54864;52.002;5.468;2022-08-05T04:32:08;9.43;;;3.70;;
68074;SDS011;54864;52.002;5.468;2022-08-05T04:33:30;11.40;;;3.80;;
68074;SDS011;54864;52.002;5.468;2022-08-05T04:34:54;7.68;;;3.92;;
68074;SDS011;54864;52.002;5.468;2022-08-05T04:36:16;8.98;;;3.58;;
68074;SDS011;54864;52.002;5.468;2022-08-05T04:37:38;6.43;;;3.17;;
68074;SDS011;54864;52.002;5.468;2022-08-05T04:39:00;12.05;;;3.83;;
68074;SDS011;54864;52.002;5.468;2022-08-05T04:40:22;9.15;;;3.97;;
68074;SDS011;54864;52.002;5.468;2022-08-05T04:41:45;9.52;;;3.60;;
68074;SDS011;54864;52.002;5.468;2022-08-05T04:43:10;10.85;;;3.60;;
68074;SDS011;54864;52.002;5.468;2022-08-05T04:44:32;9.25;;;3.80;;
68074;SDS011;54864;52.002;5.468;2022-08-05T04:45:54;11.13;;;3.20;;
68074;SDS011;54864;52.002;5.468;2022-08-05T04:47:16;8.70;;;3.67;;
68074;SDS011;54864;52.002;5.468;2022-08-05T04:48:38;8.35;;;3.53;;
68074;SDS011;54864;52.002;5.468;2022-08-05T04:50:02;10.27;;;3.67;;
68074;SDS011;54864;52.002;5.468;2022-08-05T04:51:24;10.93;;;4.10;;
68074;SDS011;54864;52.002;5.468;2022-08-05T04:52:46;7.60;;;3.78;;
68074;SDS011;54864;52.002;5.468;2022-08-05T04:54:07;7.60;;;3.45;;
68074;SDS011;54864;52.002;5.468;2022-08-05T04:55:29;9.73;;;3.92;;
68074;SDS011;54864;52.002;5.468;2022-08-05T04:56:50;9.98;;;4.20;;
68074;SDS011;54864;52.002;5.468;2022-08-05T04:58:14;12.40;;;3.83;;
68074;SDS011;54864;52.002;5.468;2022-08-05T04:59:38;14.37;;;3.80;;
68074;SDS011;54864;52.002;5.468;2022-08-05T05:00:59;11.52;;;3.70;;
68074;SDS011;54864;52.002;5.468;2022-08-05T05:02:21;14.82;;;3.10;;
68074;SDS011;54864;52.002;5.468;2022-08-05T05:03:43;9.38;;;3.60;;
68074;SDS011;54864;52.002;5.468;2022-08-05T05:05:07;8.40;;;3.97;;
68074;SDS011;54864;52.002;5.468;2022-08-05T05:06:28;6.55;;;3.55;;
68074;SDS011;54864;52.002;5.468;2022-08-05T05:07:50;9.85;;;3.53;;
68074;SDS011;54864;52.002;5.468;2022-08-05T05:09:13;7.75;;;3.67;;
68074;SDS011;54864;52.002;5.468;2022-08-05T05:10:36;5.65;;;2.95;;
68074;SDS011;54864;52.002;5.468;2022-08-05T05:12:02;10.85;;;3.85;;
68074;SDS011;54864;52.002;5.468;2022-08-05T05:13:26;9.02;;;3.92;;
68074;SDS011;54864;52.002;5.468;2022-08-05T05:14:48;11.43;;;3.75;;
68074;SDS011;54864;52.002;5.468;2022-08-05T05:16:10;8.82;;;3.72;;
68074;SDS011;54864;52.002;5.468;2022-08-05T05:17:36;7.50;;;3.25;;
68074;SDS011;54864;52.002;5.468;2022-08-05T05:18:59;8.00;;;3.63;;
68074;SDS011;54864;52.002;5.468;2022-08-05T05:20:22;11.38;;;3.47;;
68074;SDS011;54864;52.002;5.468;2022-08-05T05:21:44;7.75;;;3.65;;
68074;SDS011;54864;52.002;5.468;2022-08-05T05:23:06;8.50;;;3.55;;
68074;SDS011;54864;52.002;5.468;2022-08-05T05:24:28;8.43;;;3.83;;
68074;SDS011;54864;52.002;5.468;2022-08-05T05:25:50;9.52;;;4.10;;
68074;SDS011;54864;52.002;5.468;2022-08-05T05:27:12;8.07;;;3.80;;
68074;SDS011;54864;52.002;5.468;2022-08-05T05:28:33;8.68;;;3.78;;
68074;SDS011;54864;52.002;5.468;2022-08-05T05:29:55;4.85;;;3.35;;
68074;SDS011;54864;52.002;5.468;2022-08-05T05:31:17;7.03;;;3.53;;
68074;SDS011;54864;52.002;5.468;2022-08-05T05:32:39;10.10;;;3.63;;
68074;SDS011;54864;52.002;5.468;2022-08-05T05:34:00;11.52;;;4.15;;
68074;SDS011;54864;52.002;5.468;2022-08-05T05:35:24;11.05;;;3.83;;
68074;SDS011;54864;52.002;5.468;2022-08-05T05:36:46;9.90;;;3.45;;
68074;SDS011;54864;52.002;5.468;2022-08-05T05:38:08;8.65;;;3.45;;
68074;SDS011;54864;52.002;5.468;2022-08-05T05:39:30;9.70;;;3.95;;
68074;SDS011;54864;52.002;5.468;2022-08-05T05:40:52;7.93;;;4.17;;
68074;SDS011;54864;52.002;5.468;2022-08-05T05:42:14;9.88;;;3.60;;
68074;SDS011;54864;52.002;5.468;2022-08-05T05:43:36;10.50;;;3.80;;
68074;SDS011;54864;52.002;5.468;2022-08-05T05:44:58;10.57;;;4.32;;
68074;SDS011;54864;52.002;5.468;2022-08-05T05:46:20;10.38;;;3.65;;
68074;SDS011;54864;52.002;5.468;2022-08-05T05:47:42;6.40;;;3.78;;
68074;SDS011;54864;52.002;5.468;2022-08-05T05:49:04;10.77;;;3.85;;
68074;SDS011;54864;52.002;5.468;2022-08-05T05:50:27;6.45;;;3.60;;
68074;SDS011;54864;52.002;5.468;2022-08-05T05:51:49;10.60;;;3.70;;
68074;SDS011;54864;52.002;5.468;2022-08-05T05:53:11;10.50;;;3.60;;
68074;SDS011;54864;52.002;5.468;2022-08-05T05:54:32;9.02;;;4.00;;
68074;SDS011;54864;52.002;5.468;2022-08-05T05:55:54;8.85;;;3.78;;
68074;SDS011;54864;52.002;5.468;2022-08-05T05:57:16;10.13;;;4.45;;
68074;SDS011;54864;52.002;5.468;2022-08-05T05:58:39;11.73;;;3.97;;
68074;SDS011;54864;52.002;5.468;2022-08-05T06:00:01;10.73;;;4.13;;
68074;SDS011;54864;52.002;5.468;2022-08-05T06:01:27;10.60;;;4.10;;
68074;SDS011;54864;52.002;5.468;2022-08-05T06:02:49;7.50;;;3.63;;
68074;SDS011;54864;52.002;5.468;2022-08-05T06:04:11;6.70;;;3.47;;
68074;SDS011;54864;52.002;5.468;2022-08-05T06:05:35;7.78;;;3.83;;
68074;SDS011;54864;52.002;5.468;2022-08-05T06:06:58;8.00;;;3.45;;
68074;SDS011;54864;52.002;5.468;2022-08-05T06:08:20;7.13;;;3.45;;
68074;SDS011;54864;52.002;5.468;2022-08-05T06:09:42;7.53;;;3.13;;
68074;SDS011;54864;52.002;5.468;2022-08-05T06:11:04;6.90;;;3.35;;
68074;SDS011;54864;52.002;5.468;2022-08-05T06:12:25;7.45;;;3.33;;
68074;SDS011;54864;52.002;5.468;2022-08-05T06:13:48;10.85;;;3.25;;
68074;SDS011;54864;52.002;5.468;2022-08-05T06:15:10;7.00;;;3.05;;
68074;SDS011;54864;52.002;5.468;2022-08-05T06:16:32;9.80;;;3.20;;
68074;SDS011;54864;52.002;5.468;2022-08-05T06:17:54;10.10;;;3.17;;
68074;SDS011;54864;52.002;5.468;2022-08-05T06:19:16;8.82;;;3.15;;
68074;SDS011;54864;52.002;5.468;2022-08-05T06:20:40;5.72;;;3.20;;
68074;SDS011;54864;52.002;5.468;2022-08-05T06:22:02;6.63;;;3.05;;
68074;SDS011;54864;52.002;5.468;2022-08-05T06:23:25;7.45;;;3.33;;
68074;SDS011;54864;52.002;5.468;2022-08-05T06:24:47;8.73;;;3.13;;
68074;SDS011;54864;52.002;5.468;2022-08-05T06:26:09;7.75;;;2.90;;
68074;SDS011;54864;52.002;5.468;2022-08-05T06:27:31;9.30;;;2.97;;
68074;SDS011;54864;52.002;5.468;2022-08-05T06:28:52;8.43;;;3.10;;
68074;SDS011;54864;52.002;5.468;2022-08-05T06:30:14;5.47;;;2.95;;
68074;SDS011;54864;52.002;5.468;2022-08-05T06:31:36;7.47;;;2.67;;
68074;SDS011;54864;52.002;5.468;2022-08-05T06:32:58;8.93;;;2.90;;
68074;SDS011;54864;52.002;5.468;2022-08-05T06:34:20;6.07;;;2.78;;
68074;SDS011;54864;52.002;5.468;2022-08-05T06:35:43;6.30;;;2.90;;
68074;SDS011;54864;52.002;5.468;2022-08-05T06:37:05;6.45;;;2.72;;
68074;SDS011;54864;52.002;5.468;2022-08-05T06:38:27;5.72;;;2.67;;
68074;SDS011;54864;52.002;5.468;2022-08-05T06:39:50;10.50;;;2.97;;
68074;SDS011;54864;52.002;5.468;2022-08-05T06:41:11;4.97;;;2.55;;
68074;SDS011;54864;52.002;5.468;2022-08-05T06:42:33;8.18;;;2.80;;
68074;SDS011;54864;52.002;5.468;2022-08-05T06:43:54;5.50;;;2.97;;
68074;SDS011;54864;52.002;5.468;2022-08-05T06:45:16;5.82;;;2.47;;
68074;SDS011;54864;52.002;5.468;2022-08-05T06:46:38;8.40;;;2.83;;
68074;SDS011;54864;52.002;5.468;2022-08-05T06:48:00;8.70;;;2.58;;
68074;SDS011;54864;52.002;5.468;2022-08-05T06:49:22;6.28;;;2.63;;
68074;SDS011;54864;52.002;5.468;2022-08-05T06:50:47;11.45;;;2.60;;
68074;SDS011;54864;52.002;5.468;2022-08-05T06:52:09;6.68;;;2.67;;
68074;SDS011;54864;52.002;5.468;2022-08-05T06:53:31;10.27;;;3.50;;
68074;SDS011;54864;52.002;5.468;2022-08-05T06:54:52;4.75;;;2.70;;
68074;SDS011;54864;52.002;5.468;2022-08-05T06:56:14;5.28;;;2.47;;
68074;SDS011;54864;52.002;5.468;2022-08-05T06:57:38;6.65;;;2.78;;
68074;SDS011;54864;52.002;5.468;2022-08-05T06:59:01;6.82;;;2.92;;
68074;SDS011;54864;52.002;5.468;2022-08-05T07:00:22;4.70;;;2.45;;
68074;SDS011;54864;52.002;5.468;2022-08-05T07:01:45;5.45;;;2.47;;
68074;SDS011;54864;52.002;5.468;2022-08-05T07:03:07;5.22;;;2.75;;
68074;SDS011;54864;52.002;5.468;2022-08-05T07:04:29;4.40;;;2.25;;
68074;SDS011;54864;52.002;5.468;2022-08-05T07:05:52;9.15;;;2.30;;
68074;SDS011;54864;52.002;5.468;2022-08-05T07:07:14;4.63;;;2.15;;
68074;SDS011;54864;52.002;5.468;2022-08-05T07:08:37;4.38;;;2.33;;
68074;SDS011;54864;52.002;5.468;2022-08-05T07:10:00;6.60;;;2.33;;
68074;SDS011;54864;52.002;5.468;2022-08-05T07:11:22;6.55;;;2.63;;
68074;SDS011;54864;52.002;5.468;2022-08-05T07:12:44;12.77;;;2.50;;
68074;SDS011;54864;52.002;5.468;2022-08-05T07:14:23;6.65;;;2.03;;
68074;SDS011;54864;52.002;5.468;2022-08-05T07:16:03;7.13;;;2.10;;
68074;SDS011;54864;52.002;5.468;2022-08-05T07:17:43;4.95;;;2.35;;
68074;SDS011;54864;52.002;5.468;2022-08-05T07:19:05;4.90;;;1.80;;
68074;SDS011;54864;52.002;5.468;2022-08-05T07:20:27;5.25;;;2.10;;
68074;SDS011;54864;52.002;5.468;2022-08-05T07:21:51;8.85;;;2.45;;
68074;SDS011;54864;52.002;5.468;2022-08-05T07:23:13;6.55;;;2.20;;
68074;SDS011;54864;52.002;5.468;2022-08-05T07:24:35;8.37;;;2.03;;
68074;SDS011;54864;52.002;5.468;2022-08-05T07:25:57;8.75;;;2.90;;
68074;SDS011;54864;52.002;5.468;2022-08-05T07:27:20;8.52;;;2.10;;
68074;SDS011;54864;52.002;5.468;2022-08-05T07:28:42;4.25;;;2.50;;
68074;SDS011;54864;52.002;5.468;2022-08-05T07:30:04;7.82;;;2.00;;
68074;SDS011;54864;52.002;5.468;2022-08-05T07:31:28;3.63;;;1.88;;
68074;SDS011;54864;52.002;5.468;2022-08-05T07:32:53;4.05;;;2.20;;
68074;SDS011;54864;52.002;5.468;2022-08-05T07:34:15;4.78;;;1.90;;
68074;SDS011;54864;52.002;5.468;2022-08-05T07:35:36;2.47;;;1.60;;
68074;SDS011;54864;52.002;5.468;2022-08-05T07:37:00;2.65;;;1.92;;
68074;SDS011;54864;52.002;5.468;2022-08-05T07:38:22;3.83;;;1.80;;
68074;SDS011;54864;52.002;5.468;2022-08-05T07:39:44;3.95;;;1.77;;
68074;SDS011;54864;52.002;5.468;2022-08-05T07:41:07;6.75;;;2.00;;
68074;SDS011;54864;52.002;5.468;2022-08-05T07:42:31;3.95;;;1.63;;
68074;SDS011;54864;52.002;5.468;2022-08-05T07:43:54;4.10;;;1.67;;
68074;SDS011;54864;52.002;5.468;2022-08-05T07:45:17;7.55;;;1.60;;
68074;SDS011;54864;52.002;5.468;2022-08-05T07:46:40;3.25;;;1.45;;
68074;SDS011;54864;52.002;5.468;2022-08-05T07:48:02;3.70;;;1.63;;
68074;SDS011;54864;52.002;5.468;2022-08-05T07:49:25;4.57;;;1.67;;
68074;SDS011;54864;52.002;5.468;2022-08-05T07:50:47;4.85;;;1.70;;
68074;SDS011;54864;52.002;5.468;2022-08-05T07:52:09;7.85;;;1.70;;
68074;SDS011;54864;52.002;5.468;2022-08-05T07:53:31;4.90;;;1.70;;
68074;SDS011;54864;52.002;5.468;2022-08-05T07:54:52;3.60;;;1.77;;
68074;SDS011;54864;52.002;5.468;2022-08-05T07:56:14;2.38;;;1.40;;
68074;SDS011;54864;52.002;5.468;2022-08-05T07:57:36;2.28;;;1.33;;
68074;SDS011;54864;52.002;5.468;2022-08-05T07:58:58;4.65;;;1.50;;
68074;SDS011;54864;52.002;5.468;2022-08-05T08:00:21;4.57;;;1.40;;
68074;SDS011;54864;52.002;5.468;2022-08-05T08:01:43;3.90;;;1.38;;
68074;SDS011;54864;52.002;5.468;2022-08-05T08:03:08;4.18;;;1.60;;
68074;SDS011;54864;52.002;5.468;2022-08-05T08:04:31;3.50;;;1.30;;
68074;SDS011;54864;52.002;5.468;2022-08-05T08:05:53;3.13;;;1.15;;
68074;SDS011;54864;52.002;5.468;2022-08-05T08:07:17;4.00;;;1.05;;
68074;SDS011;54864;52.002;5.468;2022-08-05T08:08:39;3.05;;;1.17;;
68074;SDS011;54864;52.002;5.468;2022-08-05T08:10:02;4.57;;;2.42;;
68074;SDS011;54864;52.002;5.468;2022-08-05T08:11:25;2.60;;;1.42;;
68074;SDS011;54864;52.002;5.468;2022-08-05T08:12:48;3.20;;;1.42;;
68074;SDS011;54864;52.002;5.468;2022-08-05T08:14:10;2.95;;;1.35;;
68074;SDS011;54864;52.002;5.468;2022-08-05T08:15:32;2.30;;;1.17;;
68074;SDS011;54864;52.002;5.468;2022-08-05T08:16:54;3.97;;;1.30;;
68074;SDS011;54864;52.002;5.468;2022-08-05T08:18:15;2.53;;;1.00;;
68074;SDS011;54864;52.002;5.468;2022-08-05T08:19:37;4.75;;;1.30;;
68074;SDS011;54864;52.002;5.468;2022-08-05T08:21:00;2.20;;;1.38;;
68074;SDS011;54864;52.002;5.468;2022-08-05T08:22:25;2.53;;;1.00;;
68074;SDS011;54864;52.002;5.468;2022-08-05T08:23:46;3.38;;;1.17;;
68074;SDS011;54864;52.002;5.468;2022-08-05T08:25:08;2.88;;;1.10;;